Weather observations for the past three days for
Marthas Vineyard Airport
| Date | Time (edt) | Wind (mph) | Vis. (mi.) | Weather | Sky Cond. | Temperature (ºF) | Relative Humidity | Wind Chill (°F) | Heat Index (°F) | Pressure | Precipitation (in) | ||||||
|---|---|---|---|---|---|---|---|---|---|---|---|---|---|---|---|---|---|
| Air | Dwpt | 6 hour | altimeter (in) | sea level (mb) | 1 hr | 3 hr | 6 hr | ||||||||||
| Max. | Min. | ||||||||||||||||
| 06 | 07:53 | S 18 G 26 | 8.00 | Fair | CLR | 55.9 | 52 | 57 | 53.1 | 87% | 29.94 | 1013.9 | |||||
| 06 | 06:53 | S 15 | 7.00 | Fair | CLR | 55 | 52 | 90% | 29.94 | 1013.8 | |||||||
| 06 | 05:53 | S 18 | 6.00 | Fog/Mist | CLR | 53.1 | 51.1 | 93% | 29.94 | 1013.7 | |||||||
| 06 | 04:53 | S 17 | 8.00 | Fair | CLR | 53.1 | 51.1 | 93% | 29.94 | 1013.8 | |||||||
| 06 | 03:53 | S 21 G 29 | 8.00 | Fair and Breezy | CLR | 54 | 52 | 93% | 29.94 | 1013.7 | |||||||
| 06 | 02:53 | SW 15 G 25 | 8.00 | Overcast | SCT006 OVC011 | 55 | 53.1 | 93% | 29.94 | 1013.7 | |||||||
| 06 | 01:53 | S 18 G 29 | 7.00 | Partly Cloudy | SCT019 | 54 | 52 | 55.9 | 54 | 93% | 29.94 | 1013.9 | |||||
| 06 | 00:53 | S 17 G 28 | 7.00 | Mostly Cloudy | FEW006 BKN012 | 54 | 52 | 93% | 29.95 | 1014.2 | |||||||
| 05 | 23:53 | S 20 G 28 | 9.00 | Fair | CLR | 54 | 52 | 93% | 29.95 | 1014.2 | |||||||
| 05 | 22:53 | S 21 G 31 | 9.00 | Fair and Breezy | CLR | 55 | 51.1 | 87% | 29.94 | 1013.8 | |||||||
| 05 | 21:53 | SW 17 G 25 | 9.00 | Fair | CLR | 55 | 51.1 | 87% | 29.96 | 1014.4 | |||||||
| 05 | 20:53 | SW 17 G 32 | 9.00 | Fair | CLR | 55 | 48.9 | 80% | 29.92 | 1013.2 | |||||||
| 05 | 19:53 | SW 16 G 31 | 9.00 | Fair | CLR | 55 | 46.9 | 60.1 | 55 | 74% | 29.9 | 1012.6 | |||||
| 05 | 18:53 | SW 18 G 31 | 9.00 | Fair | CLR | 55.9 | 48 | 75% | 29.88 | 1011.9 | |||||||
| 05 | 17:53 | SW 18 G 30 | 9.00 | Fair | CLR | 57 | 50 | 78% | 29.88 | 1011.9 | |||||||
| 05 | 16:53 | SW 21 G 32 | 9.00 | Fair and Breezy | CLR | 57.9 | 50 | 75% | 29.88 | 1011.8 | |||||||
| 05 | 15:53 | SW 25 G 36 | 9.00 | Fair and Breezy | CLR | 57.9 | 50 | 75% | 29.88 | 1012.0 | |||||||
| 05 | 14:53 | S 23 G 36 | 10.00 | Fair and Breezy | CLR | 60.1 | 48.9 | 67% | 29.89 | 1012.2 | |||||||
| 05 | 13:53 | S 25 G 36 | 9.00 | Fair and Breezy | CLR | 59 | 48.9 | 61 | 55 | 69% | 29.91 | 1012.7 | |||||
| 05 | 12:53 | SW 24 G 38 | 9.00 | Fair and Breezy | CLR | 59 | 48.9 | 69% | 29.92 | 1013.0 | |||||||
| 05 | 11:53 | SW 21 G 33 | 10.00 | Fair and Breezy | CLR | 59 | 48.9 | 69% | 29.92 | 1013.3 | |||||||
| 05 | 10:53 | SW 18 G 30 | 9.00 | Fair | CLR | 57.9 | 48.9 | 72% | 29.93 | 1013.5 | |||||||
| 05 | 09:53 | S 23 | 10.00 | Fair and Breezy | CLR | 57.9 | 48.9 | 72% | 29.92 | 1013.2 | |||||||
| 05 | 08:53 | SW 16 G 31 | 10.00 | Fair | CLR | 57 | 48.9 | 74% | 29.92 | 1013.2 | |||||||
| 05 | 07:53 | SW 18 G 30 | 10.00 | Fair | CLR | 55 | 48.9 | 55 | 48 | 80% | 29.92 | 1013.2 | |||||
| 05 | 06:53 | S 12 | 9.00 | Partly Cloudy | SCT095 | 52 | 48.9 | 89% | 29.91 | 1012.9 | |||||||
| 05 | 05:53 | SW 8 | 8.00 | Fair | CLR | 48.9 | 46 | 90% | 46 | 29.9 | 1012.6 | ||||||
| 05 | 04:53 | S 8 | 10.00 | Fair | CLR | 48 | 46 | 93% | 45 | 29.9 | 1012.6 | ||||||
| 05 | 03:53 | S 7 | 10.00 | Fair | CLR | 48.9 | 46 | 90% | 46 | 29.91 | 1012.8 | ||||||
| 05 | 02:53 | SW 8 G 18 | 10.00 | Fair | CLR | 51.1 | 46.9 | 86% | 29.91 | 1012.7 | |||||||
| 05 | 01:53 | SW 9 | 10.00 | Fair | CLR | 51.1 | 46.9 | 52 | 50 | 86% | 29.91 | 1012.8 | |||||
| 05 | 00:53 | SW 9 | 10.00 | Fair | CLR | 51.1 | 48 | 89% | 29.91 | 1012.9 | |||||||
| 04 | 23:53 | SW 13 G 21 | 10.00 | Fair | CLR | 51.1 | 46.9 | 86% | 29.92 | 1013.3 | |||||||
| 04 | 22:53 | SW 13 G 22 | 10.00 | Fair | CLR | 51.1 | 46 | 83% | 29.92 | 1013.3 | |||||||
| 04 | 21:53 | SW 17 G 28 | 10.00 | Fair | CLR | 52 | 45 | 77% | 29.92 | 1013.2 | |||||||
| 04 | 20:53 | SW 17 G 29 | 10.00 | Fair | CLR | 52 | 45 | 77% | 29.9 | 1012.5 | |||||||
| 04 | 19:53 | SW 14 G 28 | 10.00 | Fair | CLR | 52 | 44.1 | 59 | 51.1 | 75% | 29.87 | 1011.6 | |||||
| 04 | 18:53 | SW 17 G 28 | 10.00 | Fair | CLR | 53.1 | 43 | 69% | 29.87 | 1011.4 | |||||||
| 04 | 17:53 | SW 16 G 30 | 10.00 | Fair | CLR | 55 | 43 | 64% | 29.87 | 1011.4 | |||||||
| 04 | 16:53 | S 23 G 29 | 10.00 | Fair and Breezy | CLR | 55.9 | 43 | 62% | 29.87 | 1011.4 | |||||||
| 04 | 15:53 | SW 20 G 33 | 10.00 | Fair | CLR | 57 | 43 | 60% | 29.87 | 1011.4 | |||||||
| 04 | 14:53 | SW 22 G 39 | 10.00 | Fair and Breezy | CLR | 59 | 41 | 51% | 29.87 | 1011.6 | |||||||
| 04 | 13:53 | SW 23 G 40 | 10.00 | Fair and Breezy | CLR | 57.9 | 43 | 64 | 55 | 58% | 29.87 | 1011.5 | |||||
| 04 | 12:53 | SW 18 G 31 | 10.00 | Fair | CLR | 61 | 39.9 | 46% | 29.88 | 1011.9 | |||||||
| 04 | 11:53 | SW 20 G 36 | 10.00 | Fair | CLR | 62.1 | 36 | 38% | 29.89 | 1012.0 | |||||||
| 04 | 10:53 | SW 17 G 28 | 10.00 | Fair | CLR | 60.1 | 39 | 46% | 29.9 | 1012.5 | |||||||
| 04 | 09:53 | SW 13 G 28 | 10.00 | Fair | CLR | 57.9 | 39 | 50% | 29.91 | 1012.8 | |||||||
| 04 | 08:53 | SW 13 G 31 | 10.00 | A Few Clouds | FEW075 | 57.9 | 37.9 | 48% | 29.91 | 1012.9 | |||||||
| 04 | 07:53 | SW 14 G 22 | 10.00 | Fair | CLR | 55 | 37 | 55 | 46 | 51% | 29.91 | 1013.0 | |||||
| 04 | 06:53 | SW 8 | 10.00 | Fair | CLR | 51.1 | 39.9 | 66% | 29.91 | 1012.8 | |||||||
| 04 | 05:53 | SW 12 G 21 | 10.00 | Mostly Cloudy | SCT080 BKN100 | 48 | 43 | 83% | 44 | 29.9 | 1012.4 | ||||||
| 04 | 04:53 | SW 6 | 10.00 | Overcast | OVC080 | 48 | 36 | 63% | 46 | 29.89 | 1012.1 | ||||||
| 04 | 03:53 | SW 6 | 10.00 | Overcast | BKN080 OVC100 | 46.9 | 37.9 | 71% | 45 | 29.89 | 1012.1 | ||||||
| 04 | 02:53 | SW 5 | 10.00 | Partly Cloudy | SCT095 | 46.9 | 36 | 66% | 45 | 29.88 | 1011.7 | ||||||
| 04 | 01:53 | SW 7 | 10.00 | Fair | CLR | 46.9 | 36 | 51.1 | 36 | 66% | 44 | 29.87 | 1011.5 | ||||
| 04 | 00:53 | SW 6 | 10.00 | Fair | CLR | 44.1 | 37 | 76% | 41 | 29.88 | 1011.6 | ||||||
| 03 | 23:53 | SW 6 | 10.00 | Fair | CLR | 39.9 | 28.9 | 65% | 36 | 29.87 | 1011.3 | ||||||
| 03 | 22:53 | SW 3 | 10.00 | Fair | CLR | 42.1 | 30 | 62% | 29.86 | 1011.1 | |||||||
| 03 | 21:53 | W 3 | 10.00 | Fair | CLR | 46 | 28.9 | 51% | 29.86 | 1011.0 | |||||||
| 03 | 20:53 | W 6 | 10.00 | Fair | CLR | 48.9 | 27 | 43% | 47 | 29.83 | 1010.2 | ||||||
| 03 | 19:53 | W 10 | 10.00 | Overcast | OVC075 | 51.1 | 27 | 55.9 | 51.1 | 39% | 29.8 | 1009.2 | |||||
| 03 | 18:53 | W 12 G 22 | 10.00 | Overcast | OVC075 | 53.1 | 26.1 | 35% | 29.77 | 1008.0 | |||||||
| 03 | 17:53 | W 10 G 25 | 10.00 | Overcast | OVC080 | 53.1 | 28 | 38% | 29.74 | 1007.1 | |||||||
| 03 | 16:53 | W 10 G 20 | 10.00 | Overcast | OVC075 | 54 | 28 | 37% | 29.72 | 1006.4 | |||||||
| 03 | 15:53 | NW 16 G 26 | 10.00 | Overcast | SCT070 OVC085 | 55 | 28 | 36% | 29.71 | 1005.9 | |||||||
| 03 | 14:53 | NW 20 G 31 | 10.00 | Overcast | SCT060 OVC080 | 53.1 | 28.9 | 40% | 29.71 | 1006.0 | |||||||
| 03 | 13:53 | NW 23 G 36 | 10.00 | Overcast and Breezy | SCT044 BKN055 OVC080 | 53.1 | 32 | 54 | 45 | 45% | 29.7 | 1005.8 | |||||
| 03 | 12:53 | NW 18 G 35 | 10.00 | Overcast | FEW030 BKN042 OVC080 | 52 | 37 | 57% | 29.7 | 1005.6 | |||||||
| 03 | 11:53 | NW 17 G 29 | 9.00 | Light Rain | BKN045 BKN050 | 46.9 | 37 | 69% | 41 | 29.69 | 1005.4 | ||||||
| 03 | 10:53 | NW 16 | 10.00 | Overcast | BKN037 OVC055 | 51.1 | 34 | 52% | 29.67 | 1004.8 | |||||||
| 03 | 09:53 | NW 16 G 25 | 10.00 | A Few Clouds | FEW030 | 51.1 | 37 | 59% | 29.68 | 1004.9 | |||||||
| Date | Time (edt) | Wind (mph) | Vis. (mi.) | Weather | Sky Cond. | Air | Dwpt | Max. | Min. | Relative Humidity | Wind Chill (°F) | Heat Index (°F) | altimeter (in) | sea level (mb) | 1 hr | 3 hr | 6 hr |
| 6 hour | |||||||||||||||||
| Temperature (ºF) | Pressure | Precipitation (in) | |||||||||||||||